Mumford, NY (14511)

5:21 PM EST on November 24, 2014 (GMT -0500)
Mumford | Change Station
CLOSE
Current Station
Personal Weather Station
Location: Scottsville, NY
Elevation: 600 ft
Nearby Weather Stations

Elev 600 ft 43.00 °N, 77.85 °W | Updated 10 seconds ago

Mostly Cloudy
Mostly Cloudy
57.0 °F
Feels Like 57.0 °F
N
2.0
Wind Variable Wind from WNW
Gusts 2.5 mph

Today
High -- | Low -- °F
--% Chance of Precip.
Yesterday
High -- | Low -- °F
Precip. -- in
7:14 AM 4:41 PM
Waxing Crescent, 7% visible
Pressure 29.37 in
Visibility 10.0 miles
Clouds Few 1500 ft
Mostly Cloudy 4700 ft
Overcast 11000 ft
Dew Point 48 °F
Humidity 72%
Rainfall 0.05 in
Snow Depth Not available.
UV 0.0 out of 12
Pollen .10 out of 12
Air Quality Not available.
Flu Activity Not available.
METAR KROC 242154Z 23015G23KT 10SM -RA FEW015 BKN047 OVC110 14/10 A2936 RMK AO2 PK WND 28035/2108 WSHFT 2041 RAE2058B22 SLP945 BINOVC P0000 T01390100

More Conditions Fewer Conditions

Pressure 29.37 in
Visibility 10.0 miles
Clouds Few 1500 ft
Mostly Cloudy 4700 ft
Overcast 11000 ft
Dew Point 48 °F
Humidity 72%
Rainfall 0.05 in
Snow Depth Not available.
UV 0.0 out of 12
Pollen .10 out of 12
Air Quality Not available.
Flu Activity Not available.
METAR KROC 242154Z 23015G23KT 10SM -RA FEW015 BKN047 OVC110 14/10 A2936 RMK AO2 PK WND 28035/2108 WSHFT 2041 RAE2058B22 SLP945 BINOVC P0000 T01390100

More Conditions Fewer Conditions

10-Day Weather Forecast

Almanac

Astronomy

Nov. 24, 2014 Rise Set
Actual Time
Civil Twilight
Nautical Twilight
Astronomical Twilight
Moon
Length of Visible Light
Length of Day
Tomorrow will be .
, % of the Moon is Illuminated

Today's Extremes

State Highs State Lows

Community

WunderPhotos

Upload Photos

1,773,427 photos uploaded!

WunderBlogs® & News

Nearby

Air Quality

  Air Quality AQ Index Pollutant
Not available.

Snow Depth

Station Depth Elevation

Earthquake Activity

City Distance Mag. Time & Date
Minimum magnitude displayed is 2.5.

Coastal Water Temperatures

Place Temperature

Nearby Weather Stations